Time;durP1;ratioP1;P1;durP2;ratioP2;P2;SDS_P1;SDS_P2;PMS_P1;PMS_P2;Temp;Humidity;BMP_temperature;BMP_pressure;BME280_temperature;BME280_humidity;BME280_pressure;Samples;Min_cycle;Max_cycle;Signal;HPM_P1;HPM_P2
2021/09/02 00:00:32;;;;;;;3.53;3.22;;;17.60;99.90;;;;;;5053323;28;20200;-75
2021/09/02 00:02:59;;;;;;;3.50;3.20;;;17.80;99.90;;;;;;5049086;28;20261;-76
2021/09/02 00:05:25;;;;;;;4.03;3.60;;;17.60;99.90;;;;;;5040828;28;20227;-75
2021/09/02 00:07:52;;;;;;;4.10;3.72;;;17.70;99.90;;;;;;5034524;28;20278;-75
2021/09/02 00:10:19;;;;;;;3.55;2.70;;;17.60;99.90;;;;;;5050862;28;20204;-76
2021/09/02 00:12:46;;;;;;;4.93;3.83;;;17.70;99.90;;;;;;5052487;28;20195;-75
2021/09/02 00:15:14;;;;;;;3.78;2.95;;;17.60;99.90;;;;;;5044881;28;20253;-75
2021/09/02 00:17:41;;;;;;;3.78;3.47;;;17.60;99.90;;;;;;5053693;28;20242;-75
2021/09/02 00:20:09;;;;;;;3.60;3.00;;;17.60;99.90;;;;;;5037338;28;20212;-75
2021/09/02 00:22:36;;;;;;;6.22;3.58;;;17.60;99.90;;;;;;5034550;28;20649;-78
2021/09/02 00:25:02;;;;;;;4.82;3.40;;;17.50;99.90;;;;;;5039718;28;20192;-75
2021/09/02 00:27:29;;;;;;;3.72;2.83;;;17.50;99.90;;;;;;5043316;28;20223;-74
2021/09/02 00:29:56;;;;;;;3.15;2.78;;;17.50;99.90;;;;;;5053377;28;20742;-75
2021/09/02 00:32:24;;;;;;;4.10;3.13;;;17.40;99.90;;;;;;5049482;28;20721;-75
2021/09/02 00:34:50;;;;;;;5.03;3.70;;;17.40;99.90;;;;;;5045503;28;20201;-74
2021/09/02 00:37:17;;;;;;;3.97;3.47;;;17.40;99.90;;;;;;5036806;28;20196;-75
2021/09/02 00:39:44;;;;;;;4.00;3.08;;;17.40;99.90;;;;;;5041441;28;20196;-75
2021/09/02 00:42:11;;;;;;;3.05;2.75;;;17.40;99.90;;;;;;5033520;28;20200;-75
2021/09/02 00:44:39;;;;;;;4.10;3.53;;;17.30;99.90;;;;;;5047027;28;20196;-75
2021/09/02 00:47:07;;;;;;;4.07;3.50;;;17.30;99.90;;;;;;5048057;28;20203;-74
2021/09/02 00:49:36;;;;;;;3.97;3.25;;;17.30;99.90;;;;;;5050144;28;20230;-74
2021/09/02 00:52:04;;;;;;;4.30;3.03;;;17.30;99.90;;;;;;5048469;28;20204;-75
2021/09/02 00:54:31;;;;;;;4.22;3.83;;;17.30;99.90;;;;;;5046361;28;20196;-75
2021/09/02 00:56:58;;;;;;;3.45;2.95;;;17.20;99.90;;;;;;5047446;28;20552;-74
2021/09/02 00:59:25;;;;;;;5.70;3.70;;;17.20;99.90;;;;;;5052806;28;20691;-75
2021/09/02 01:01:52;;;;;;;3.58;3.28;;;17.20;99.90;;;;;;5052165;28;20294;-74
2021/09/02 01:04:19;;;;;;;2.95;2.45;;;17.20;99.90;;;;;;5050583;28;20203;-75
2021/09/02 01:06:48;;;;;;;3.25;2.97;;;17.20;99.90;;;;;;5043744;28;20191;-75
2021/09/02 01:09:15;;;;;;;3.33;3.03;;;17.10;99.90;;;;;;5045528;28;20212;-73
2021/09/02 01:11:42;;;;;;;5.95;3.47;;;17.10;99.90;;;;;;5043621;28;20195;-74
2021/09/02 01:14:08;;;;;;;4.30;2.95;;;17.10;99.90;;;;;;5052464;28;20203;-74
2021/09/02 01:16:35;;;;;;;3.97;3.20;;;17.10;99.90;;;;;;5052133;28;20656;-75
2021/09/02 01:19:02;;;;;;;2.75;2.50;;;17.10;99.90;;;;;;5043244;28;20197;-75
2021/09/02 01:21:30;;;;;;;3.83;3.53;;;17.10;99.90;;;;;;5041086;28;20203;-75
2021/09/02 01:23:58;;;;;;;3.85;2.95;;;17.10;99.90;;;;;;5043099;28;20196;-75
2021/09/02 01:26:24;;;;;;;3.25;2.92;;;17.60;99.90;;;;;;5033138;28;20200;-75
2021/09/02 01:28:52;;;;;;;4.00;3.20;;;17.00;99.90;;;;;;5032555;28;20264;-75
2021/09/02 01:31:20;;;;;;;3.88;2.97;;;17.00;99.90;;;;;;5043438;28;20203;-75
2021/09/02 01:33:47;;;;;;;3.22;2.92;;;17.00;99.90;;;;;;5050792;28;20195;-75
2021/09/02 01:36:14;;;;;;;3.53;3.00;;;17.10;99.90;;;;;;5050275;28;20195;-75
2021/09/02 01:38:41;;;;;;;5.00;3.60;;;17.00;99.90;;;;;;5039846;28;20188;-75
2021/09/02 01:41:09;;;;;;;4.45;3.83;;;17.00;99.90;;;;;;5036476;28;20183;-75
2021/09/02 01:43:36;;;;;;;2.55;2.35;;;16.90;99.90;;;;;;5049392;28;20249;-74
2021/09/02 01:46:03;;;;;;;3.38;2.78;;;16.90;99.90;;;;;;5032725;28;20609;-74
2021/09/02 01:48:33;;;;;;;4.88;2.95;;;17.00;99.90;;;;;;5040095;28;20216;-74
2021/09/02 01:51:00;;;;;;;5.45;3.42;;;16.90;99.90;;;;;;5052315;28;20317;-74
2021/09/02 01:53:27;;;;;;;3.30;3.00;;;16.90;99.90;;;;;;5050863;28;21718;-74
2021/09/02 01:55:54;;;;;;;3.42;3.15;;;16.90;99.90;;;;;;5048448;28;20199;-74
2021/09/02 01:58:23;;;;;;;4.07;3.33;;;16.90;99.90;;;;;;5050571;28;20661;-74
2021/09/02 02:00:49;;;;;;;6.10;3.13;;;16.90;99.90;;;;;;5033817;28;20273;-74
2021/09/02 02:03:16;;;;;;;3.55;2.67;;;16.90;99.90;;;;;;5032311;28;20196;-74
2021/09/02 02:05:43;;;;;;;3.88;3.40;;;16.80;99.90;;;;;;5044220;28;20649;-74
2021/09/02 02:08:16;;;;;;;3.03;2.78;;;16.80;99.90;;;;;;5050359;28;20223;-75
2021/09/02 02:10:43;;;;;;;3.88;2.80;;;16.80;99.90;;;;;;5033503;28;20207;-74
2021/09/02 02:13:09;;;;;;;3.10;2.90;;;16.80;99.90;;;;;;5031985;28;20219;-75
2021/09/02 02:15:38;;;;;;;2.55;2.30;;;16.80;99.90;;;;;;5046487;28;20547;-75
2021/09/02 02:18:04;;;;;;;4.47;3.00;;;16.80;99.90;;;;;;5047151;28;20202;-75
2021/09/02 02:20:31;;;;;;;3.42;2.97;;;16.80;99.90;;;;;;5037107;28;20215;-75
2021/09/02 02:22:58;;;;;;;3.83;3.30;;;16.70;99.90;;;;;;5051669;28;20655;-75
2021/09/02 02:25:24;;;;;;;4.18;3.25;;;16.70;99.90;;;;;;5036457;28;20197;-74
2021/09/02 02:27:51;;;;;;;4.50;3.15;;;16.80;99.90;;;;;;5040070;28;20272;-75
2021/09/02 02:30:20;;;;;;;7.47;3.85;;;16.80;99.90;;;;;;5049478;28;20203;-75
2021/09/02 02:32:48;;;;;;;2.70;2.50;;;16.70;99.90;;;;;;5046253;28;20225;-75
2021/09/02 02:35:16;;;;;;;2.72;2.50;;;16.60;99.90;;;;;;5050741;28;20568;-75
2021/09/02 02:37:42;;;;;;;4.38;3.30;;;16.70;99.90;;;;;;5051490;28;20249;-75
2021/09/02 02:40:11;;;;;;;4.03;3.28;;;16.70;99.90;;;;;;5050122;28;20196;-74
2021/09/02 02:42:39;;;;;;;2.92;2.65;;;16.70;99.90;;;;;;5049411;28;20199;-74
2021/09/02 02:45:06;;;;;;;4.22;2.58;;;16.60;99.90;;;;;;5047570;28;20200;-74
2021/09/02 02:47:33;;;;;;;3.42;2.80;;;16.70;99.90;;;;;;5051917;28;20188;-74
2021/09/02 02:50:01;;;;;;;3.17;2.88;;;16.60;99.90;;;;;;5039297;28;20273;-74
2021/09/02 02:52:28;;;;;;;4.55;2.97;;;16.60;99.90;;;;;;5046340;28;20203;-74
2021/09/02 02:54:55;;;;;;;4.95;3.00;;;16.60;99.90;;;;;;5044546;28;20286;-74
2021/09/02 02:57:21;;;;;;;3.05;2.75;;;16.70;99.90;;;;;;5031700;28;20246;-75
2021/09/02 02:59:48;;;;;;;3.17;2.88;;;16.60;99.90;;;;;;5038505;28;20207;-76
2021/09/02 03:02:15;;;;;;;3.45;3.15;;;16.60;99.90;;;;;;5050486;28;20214;-75
2021/09/02 03:04:41;;;;;;;3.20;2.90;;;16.60;99.90;;;;;;5047117;28;20187;-74
2021/09/02 03:07:09;;;;;;;3.50;3.17;;;16.60;99.90;;;;;;5051701;28;20221;-74
2021/09/02 03:09:36;;;;;;;3.20;2.92;;;16.60;99.90;;;;;;5041760;28;20592;-74
2021/09/02 03:12:03;;;;;;;3.63;2.72;;;16.50;99.90;;;;;;5031518;28;20220;-75
2021/09/02 03:14:30;;;;;;;3.70;2.85;;;16.50;99.90;;;;;;5044889;28;20203;-75
2021/09/02 03:16:57;;;;;;;3.75;3.03;;;16.50;99.90;;;;;;5036603;28;20710;-75
2021/09/02 03:19:23;;;;;;;3.33;3.03;;;16.50;99.90;;;;;;5049619;28;20242;-75
2021/09/02 03:21:50;;;;;;;3.00;2.70;;;16.50;99.90;;;;;;5044284;28;20250;-75
2021/09/02 03:24:18;;;;;;;5.30;3.80;;;16.50;99.90;;;;;;5041502;28;20197;-75
2021/09/02 03:26:45;;;;;;;4.50;3.83;;;16.50;99.90;;;;;;5050852;28;20678;-75
2021/09/02 03:29:11;;;;;;;3.10;2.80;;;16.50;99.90;;;;;;5049815;28;20619;-75
2021/09/02 03:31:38;;;;;;;4.47;3.20;;;16.50;99.90;;;;;;5054014;28;20203;-75
2021/09/02 03:34:05;;;;;;;3.88;3.17;;;16.50;99.90;;;;;;5047622;28;20660;-75
2021/09/02 03:36:32;;;;;;;4.28;3.20;;;16.50;99.90;;;;;;5051285;28;20610;-75
2021/09/02 03:38:58;;;;;;;3.05;2.78;;;16.50;99.90;;;;;;5053351;28;20200;-75
2021/09/02 03:41:26;;;;;;;3.53;2.80;;;16.40;99.90;;;;;;5051917;28;20617;-75
2021/09/02 03:43:53;;;;;;;5.25;3.15;;;16.50;99.90;;;;;;5052012;28;20203;-75
2021/09/02 03:46:20;;;;;;;3.40;2.75;;;16.50;99.90;;;;;;5041525;28;20184;-75
2021/09/02 03:48:46;;;;;;;3.00;2.70;;;16.40;99.90;;;;;;5047678;28;20225;-75
2021/09/02 03:51:13;;;;;;;2.72;2.50;;;16.40;99.90;;;;;;5053549;28;20195;-76
2021/09/02 03:53:40;;;;;;;4.72;3.72;;;16.40;99.90;;;;;;5053094;28;20240;-77
2021/09/02 03:56:06;;;;;;;3.13;2.83;;;16.40;99.90;;;;;;5034216;28;20200;-75
2021/09/02 03:58:35;;;;;;;4.70;3.50;;;16.50;99.90;;;;;;5051422;28;20599;-76
2021/09/02 04:01:01;;;;;;;4.28;2.58;;;16.40;99.90;;;;;;5046723;28;20199;-76
2021/09/02 04:03:28;;;;;;;5.18;4.78;;;16.30;99.90;;;;;;5042384;28;20200;-76
2021/09/02 04:05:55;;;;;;;4.05;3.75;;;16.30;99.90;;;;;;5034796;28;20287;-74
2021/09/02 04:08:21;;;;;;;4.40;3.40;;;16.30;99.90;;;;;;5043947;28;20196;-74
2021/09/02 04:10:48;;;;;;;6.03;3.63;;;16.80;99.90;;;;;;5043451;28;20195;-73
2021/09/02 04:13:15;;;;;;;3.95;3.15;;;16.30;99.90;;;;;;5054169;28;20199;-74
2021/09/02 04:15:43;;;;;;;3.58;3.10;;;16.30;99.90;;;;;;5054340;28;20293;-75
2021/09/02 04:18:10;;;;;;;4.93;3.13;;;16.30;99.90;;;;;;5046950;28;20199;-75
2021/09/02 04:20:37;;;;;;;3.70;3.20;;;16.20;99.90;;;;;;5047562;28;20207;-75
2021/09/02 04:23:03;;;;;;;5.00;3.45;;;16.20;99.90;;;;;;5052398;28;20200;-74
2021/09/02 04:25:30;;;;;;;4.10;2.90;;;16.30;99.90;;;;;;5047772;28;20187;-74
2021/09/02 04:27:57;;;;;;;3.10;2.80;;;16.20;99.90;;;;;;5046020;28;20204;-75
2021/09/02 04:30:23;;;;;;;4.72;2.42;;;16.20;99.90;;;;;;5040725;28;20265;-75
2021/09/02 04:32:52;;;;;;;5.93;2.75;;;16.20;99.90;;;;;;5036063;28;20223;-74
2021/09/02 04:35:18;;;;;;;3.15;2.88;;;16.20;99.90;;;;;;5053511;28;20553;-74
2021/09/02 04:37:47;;;;;;;2.97;2.67;;;16.20;99.90;;;;;;5053679;28;20261;-74
2021/09/02 04:40:15;;;;;;;3.15;2.60;;;16.20;99.90;;;;;;5044159;28;20196;-74
2021/09/02 04:42:43;;;;;;;5.22;3.15;;;16.20;99.90;;;;;;5052745;28;20249;-74
2021/09/02 04:45:11;;;;;;;2.60;2.40;;;16.20;99.90;;;;;;5053734;28;20312;-73
2021/09/02 04:47:38;;;;;;;2.80;2.60;;;16.20;99.90;;;;;;5051151;28;20196;-73
2021/09/02 04:50:09;;;;;;;3.53;2.42;;;16.10;99.90;;;;;;5052498;28;20220;-74
2021/09/02 04:52:36;;;;;;;5.18;3.05;;;16.10;99.90;;;;;;5044023;28;20187;-74
2021/09/02 04:55:03;;;;;;;3.83;3.15;;;16.10;99.90;;;;;;5040959;28;20596;-74
2021/09/02 04:57:30;;;;;;;6.45;2.45;;;16.10;99.90;;;;;;5036645;28;20191;-75
2021/09/02 04:59:56;;;;;;;3.60;2.45;;;16.10;99.90;;;;;;5051955;28;20660;-75
2021/09/02 05:02:23;;;;;;;2.30;2.03;;;16.10;99.90;;;;;;5048367;28;20558;-75
2021/09/02 05:04:50;;;;;;;4.60;4.15;;;16.10;99.90;;;;;;5053451;28;20210;-74
2021/09/02 05:07:18;;;;;;;3.20;2.53;;;16.00;99.90;;;;;;5044371;28;20199;-74
2021/09/02 05:09:45;;;;;;;2.90;2.60;;;16.00;99.90;;;;;;5049588;28;20234;-74
2021/09/02 05:12:11;;;;;;;3.30;2.97;;;16.00;99.90;;;;;;5050286;28;20257;-74
2021/09/02 05:14:38;;;;;;;5.45;2.63;;;16.00;99.90;;;;;;5052322;28;20196;-74
2021/09/02 05:17:05;;;;;;;3.17;2.88;;;16.00;99.90;;;;;;5044405;28;20196;-74
2021/09/02 05:19:32;;;;;;;3.08;2.83;;;16.00;99.90;;;;;;5031996;28;20648;-74
2021/09/02 05:21:58;;;;;;;2.85;2.63;;;16.00;99.90;;;;;;5033272;28;20595;-74
2021/09/02 05:24:26;;;;;;;2.40;2.20;;;16.00;99.90;;;;;;5033028;28;20203;-74
2021/09/02 05:26:53;;;;;;;2.80;2.60;;;16.00;99.90;;;;;;5048793;28;20221;-74
2021/09/02 05:29:20;;;;;;;3.90;3.03;;;16.00;99.90;;;;;;5052122;28;20690;-74
2021/09/02 05:31:46;;;;;;;4.35;2.90;;;16.00;99.90;;;;;;5050371;28;20603;-74
2021/09/02 05:34:13;;;;;;;3.20;2.25;;;15.90;99.90;;;;;;5036966;28;20192;-74
2021/09/02 05:36:40;;;;;;;3.30;3.00;;;15.90;99.90;;;;;;5042511;28;20192;-74
2021/09/02 05:39:07;;;;;;;6.57;2.58;;;15.90;99.90;;;;;;5047363;28;20203;-75
2021/09/02 05:41:35;;;;;;;3.83;2.85;;;15.90;99.90;;;;;;5036522;28;20270;-75
2021/09/02 05:44:01;;;;;;;2.83;2.58;;;15.90;99.90;;;;;;5032713;28;20200;-75
2021/09/02 05:46:28;;;;;;;4.68;3.83;;;16.00;99.90;;;;;;5033068;28;20192;-75
2021/09/02 05:48:55;;;;;;;2.53;2.25;;;15.90;99.90;;;;;;5039061;28;20542;-75
2021/09/02 05:51:21;;;;;;;3.10;2.80;;;15.90;99.90;;;;;;5036937;28;20188;-75
2021/09/02 05:53:48;;;;;;;3.05;2.50;;;15.90;99.90;;;;;;5048718;28;20196;-74
2021/09/02 05:56:15;;;;;;;3.75;3.00;;;16.00;99.90;;;;;;5050619;28;20192;-75
2021/09/02 05:58:43;;;;;;;3.67;3.13;;;16.10;99.90;;;;;;5039217;28;20184;-75
2021/09/02 06:01:09;;;;;;;3.70;3.03;;;16.20;99.90;;;;;;5034501;28;20695;-76
2021/09/02 06:03:36;;;;;;;4.47;3.83;;;16.40;99.90;;;;;;5050725;28;20652;-74
2021/09/02 06:06:03;;;;;;;3.70;3.40;;;16.60;99.90;;;;;;5050365;28;20203;-75
2021/09/02 06:08:30;;;;;;;4.20;3.28;;;16.80;99.90;;;;;;5050124;28;20246;-74
2021/09/02 06:10:56;;;;;;;3.50;3.05;;;17.00;99.90;;;;;;5040188;28;20219;-74
2021/09/02 06:13:23;;;;;;;3.75;2.50;;;17.10;99.90;;;;;;5051687;28;20660;-75
2021/09/02 06:15:51;;;;;;;5.45;3.58;;;17.30;99.90;;;;;;5052132;28;20628;-76
2021/09/02 06:18:18;;;;;;;3.60;3.30;;;17.40;99.90;;;;;;5044089;28;20242;-75
2021/09/02 06:20:44;;;;;;;3.08;2.88;;;17.50;99.90;;;;;;5050085;28;20261;-74
2021/09/02 06:23:11;;;;;;;3.88;2.75;;;17.60;99.90;;;;;;5049432;28;20249;-75
2021/09/02 06:25:38;;;;;;;7.32;3.53;;;17.70;99.90;;;;;;5048868;28;20541;-75
2021/09/02 06:28:05;;;;;;;3.65;3.33;;;17.80;99.90;;;;;;5049918;28;20242;-75
2021/09/02 06:30:32;;;;;;;2.92;2.70;;;17.80;99.90;;;;;;5050437;28;20211;-75
2021/09/02 06:33:00;;;;;;;3.67;3.38;;;18.00;99.90;;;;;;5047635;28;20245;-74
2021/09/02 06:35:26;;;;;;;3.40;3.10;;;18.00;99.90;;;;;;5043303;28;20241;-74
2021/09/02 06:37:53;;;;;;;4.63;3.00;;;18.10;99.90;;;;;;5034971;28;20242;-75
2021/09/02 06:40:20;;;;;;;3.05;2.78;;;18.20;99.90;;;;;;5038138;28;20203;-75
2021/09/02 06:42:46;;;;;;;4.57;3.17;;;18.30;99.90;;;;;;5050983;28;20248;-75
2021/09/02 06:45:13;;;;;;;3.17;2.72;;;18.40;99.90;;;;;;5050295;28;20199;-74
2021/09/02 06:47:40;;;;;;;5.65;3.63;;;18.40;99.90;;;;;;5051249;28;20687;-80
2021/09/02 06:50:10;;;;;;;4.55;4.10;;;18.50;99.90;;;;;;5048451;28;20219;-80
2021/09/02 06:52:37;;;;;;;3.92;3.53;;;18.60;99.90;;;;;;5054756;28;20195;-83
2021/09/02 06:55:04;;;;;;;4.90;3.78;;;18.70;99.90;;;;;;5043985;28;20715;-81
2021/09/02 06:57:31;;;;;;;3.65;2.90;;;18.80;99.90;;;;;;5046497;28;20254;-81
2021/09/02 06:59:58;;;;;;;4.60;4.05;;;18.80;99.90;;;;;;5041719;28;20210;-82
2021/09/02 07:02:24;;;;;;;5.22;3.88;;;18.90;99.90;;;;;;5048368;28;20269;-84
2021/09/02 07:04:51;;;;;;;8.55;5.03;;;18.90;99.90;;;;;;5054758;28;20192;-81
2021/09/02 07:07:19;;;;;;;6.90;5.40;;;19.10;99.90;;;;;;5040885;28;20246;-81
2021/09/02 07:09:46;;;;;;;7.00;5.05;;;19.10;99.90;;;;;;5052450;28;20223;-84
2021/09/02 07:12:13;;;;;;;7.43;4.88;;;19.20;99.90;;;;;;5059098;28;20195;-82
2021/09/02 07:14:39;;;;;;;6.10;5.18;;;19.30;99.90;;;;;;5053698;28;20203;-81
2021/09/02 07:17:08;;;;;;;5.07;4.38;;;19.30;99.90;;;;;;5060473;28;20194;-81
2021/09/02 07:19:35;;;;;;;8.27;5.20;;;19.40;99.90;;;;;;5054472;28;20212;-81
2021/09/02 07:22:02;;;;;;;5.97;4.30;;;19.50;99.90;;;;;;5055089;28;20546;-81
2021/09/02 07:24:30;;;;;;;11.40;5.43;;;19.50;99.90;;;;;;5052957;28;20207;-81
2021/09/02 07:26:57;;;;;;;5.60;5.10;;;19.50;99.90;;;;;;5042892;28;20199;-82
2021/09/02 07:29:24;;;;;;;7.18;5.55;;;19.50;99.90;;;;;;5060969;28;20192;-80
2021/09/02 07:31:51;;;;;;;7.43;5.03;;;19.50;99.90;;;;;;5055121;28;20203;-81
2021/09/02 07:34:18;;;;;;;8.10;6.22;;;19.60;99.90;;;;;;5062163;28;20200;-81
2021/09/02 07:36:44;;;;;;;7.47;5.10;;;19.60;99.90;;;;;;5053589;28;20196;-81
2021/09/02 07:39:12;;;;;;;8.68;5.03;;;19.60;99.90;;;;;;5037673;28;20193;-83
2021/09/02 07:41:40;;;;;;;8.75;5.35;;;19.70;99.90;;;;;;5037650;28;20203;-80
2021/09/02 07:44:07;;;;;;;6.82;5.55;;;19.70;99.90;;;;;;5044486;28;20196;-81
2021/09/02 07:46:35;;;;;;;6.47;5.30;;;19.70;99.90;;;;;;5057434;28;20341;-80
2021/09/02 07:49:01;;;;;;;6.38;5.57;;;19.80;99.90;;;;;;5049476;28;20608;-83
2021/09/02 07:51:28;;;;;;;7.03;6.20;;;19.80;99.90;;;;;;5048438;28;20722;-81
2021/09/02 07:53:55;;;;;;;8.85;5.78;;;19.80;99.90;;;;;;5059234;28;20481;-79
2021/09/02 07:56:23;;;;;;;7.53;5.82;;;19.90;99.90;;;;;;5044200;28;20226;-81
2021/09/02 07:58:51;;;;;;;6.22;5.60;;;19.90;99.90;;;;;;5039910;28;20204;-83
2021/09/02 08:01:22;;;;;;;6.40;5.53;;;19.90;99.90;;;;;;5058644;28;20226;-81
2021/09/02 08:03:49;;;;;;;9.18;5.65;;;20.00;99.90;;;;;;5042803;28;20654;-81
2021/09/02 08:06:16;;;;;;;7.25;5.25;;;20.10;99.90;;;;;;5050024;28;20653;-81
2021/09/02 08:08:43;;;;;;;6.18;5.50;;;20.10;99.90;;;;;;5061288;28;20202;-83
2021/09/02 08:11:10;;;;;;;6.05;4.55;;;20.10;99.90;;;;;;5063247;28;20226;-80
2021/09/02 08:13:36;;;;;;;7.60;5.85;;;20.20;99.90;;;;;;5066581;28;20629;-80
2021/09/02 08:16:05;;;;;;;7.32;6.30;;;21.00;99.90;;;;;;5063829;28;20199;-80
2021/09/02 08:18:32;;;;;;;9.30;6.78;;;20.30;99.90;;;;;;5063108;28;20210;-80
2021/09/02 08:20:59;;;;;;;7.68;5.22;;;21.40;99.90;;;;;;5057212;28;20222;-80
2021/09/02 08:23:26;;;;;;;8.18;5.32;;;20.30;99.90;;;;;;5060964;28;20192;-80
2021/09/02 08:25:52;;;;;;;6.03;4.68;;;20.30;99.90;;;;;;5053817;28;20223;-79
2021/09/02 08:28:19;;;;;;;8.13;5.68;;;20.50;99.90;;;;;;5060327;28;20199;-81
2021/09/02 08:30:46;;;;;;;12.05;5.60;;;20.40;99.90;;;;;;5065254;28;20292;-80
2021/09/02 08:33:15;;;;;;;9.07;5.70;;;22.10;99.90;;;;;;5060294;28;20245;-80
2021/09/02 08:35:42;;;;;;;5.20;4.70;;;20.40;99.90;;;;;;5052193;28;20196;-80
2021/09/02 08:38:10;;;;;;;5.65;4.55;;;20.40;99.90;;;;;;5057411;28;20200;-81
2021/09/02 08:40:38;;;;;;;5.78;4.80;;;20.50;99.90;;;;;;5056070;28;20282;-81
2021/09/02 08:43:06;;;;;;;7.13;6.43;;;20.40;99.90;;;;;;5064515;28;20278;-81
2021/09/02 08:45:33;;;;;;;8.55;6.00;;;18.90;99.90;;;;;;5065816;28;20199;-80
2021/09/02 08:48:01;;;;;;;11.73;6.90;;;20.60;99.90;;;;;;5053974;28;20234;-80
2021/09/02 08:50:31;;;;;;;6.93;5.70;;;20.60;99.90;;;;;;5045487;28;20783;-81
2021/09/02 08:52:58;;;;;;;6.78;5.97;;;20.60;99.90;;;;;;5049571;28;20201;-81
2021/09/02 08:55:25;;;;;;;11.15;6.53;;;20.70;99.90;;;;;;5065472;28;20203;-80
2021/09/02 08:57:53;;;;;;;9.32;6.03;;;20.70;99.90;;;;;;5057511;28;20200;-82
2021/09/02 09:00:21;;;;;;;11.20;8.77;;;20.70;99.90;;;;;;5046175;28;20204;-81
2021/09/02 09:02:49;;;;;;;9.13;7.72;;;20.70;99.90;;;;;;5055227;28;20197;-81
2021/09/02 09:05:17;;;;;;;9.13;6.43;;;20.70;99.90;;;;;;5049710;28;20196;-82
2021/09/02 09:07:48;;;;;;;8.55;7.18;;;20.70;99.90;;;;;;5049545;28;20187;-81
2021/09/02 09:10:17;;;;;;;12.02;7.00;;;20.70;99.90;;;;;;5050338;28;20216;-80
2021/09/02 09:12:45;;;;;;;10.43;8.60;;;20.70;99.90;;;;;;5046543;28;20196;-80
2021/09/02 09:15:18;;;;;;;9.85;8.05;;;20.70;99.90;;;;;;5062252;28;20199;-79
2021/09/02 09:18:15;;;;;;;9.70;8.13;;;20.70;99.90;;;;;;5061550;28;20196;-83
2021/09/02 09:20:42;;;;;;;16.02;8.57;;;20.70;99.90;;;;;;5053387;28;20222;-80
2021/09/02 09:23:10;;;;;;;13.35;9.32;;;20.80;99.90;;;;;;5053254;28;20196;-78
2021/09/02 09:25:37;;;;;;;12.32;8.73;;;20.80;99.90;;;;;;5047167;28;20200;-75
2021/09/02 09:28:04;;;;;;;9.88;6.85;;;20.80;99.90;;;;;;5046402;28;20267;-74
2021/09/02 09:30:33;;;;;;;10.90;6.75;;;20.80;99.90;;;;;;5044149;28;20216;-75
2021/09/02 09:33:03;;;;;;;14.57;8.50;;;20.80;99.90;;;;;;5045954;28;20200;-76
2021/09/02 09:35:33;;;;;;;9.20;6.20;;;20.80;99.90;;;;;;5033575;28;20665;-76
2021/09/02 09:38:05;;;;;;;10.50;7.43;;;20.80;99.90;;;;;;5052482;28;20198;-77
2021/09/02 09:40:34;;;;;;;7.60;6.78;;;20.80;99.90;;;;;;5047459;28;20470;-76
2021/09/02 09:43:07;;;;;;;11.13;7.50;;;20.80;99.90;;;;;;5039589;28;20192;-77
2021/09/02 09:45:46;;;;;;;9.88;8.35;;;20.80;99.90;;;;;;5044707;28;20652;-76
2021/09/02 09:48:36;;;;;;;9.23;7.18;;;20.80;99.90;;;;;;5044732;28;20196;-76
2021/09/02 09:51:12;;;;;;;12.30;9.90;;;20.80;99.90;;;;;;5032302;28;20222;-77
2021/09/02 09:53:39;;;;;;;11.02;9.65;;;20.80;99.90;;;;;;5034869;28;20203;-76
2021/09/02 09:56:08;;;;;;;11.05;6.60;;;20.80;99.90;;;;;;5050947;28;20191;-77
2021/09/02 09:58:35;;;;;;;8.90;7.00;;;20.80;99.90;;;;;;5043531;28;20188;-77
2021/09/02 10:01:04;;;;;;;13.27;10.07;;;20.70;99.90;;;;;;5041527;28;20199;-77
2021/09/02 10:03:32;;;;;;;11.40;9.90;;;20.70;99.90;;;;;;5046784;28;20195;-77
2021/09/02 10:06:03;;;;;;;13.77;8.38;;;20.70;99.90;;;;;;5040255;28;20196;-78
2021/09/02 10:08:35;;;;;;;11.40;9.00;;;20.70;99.90;;;;;;5038584;28;20201;-76
2021/09/02 10:11:03;;;;;;;9.48;8.27;;;20.70;99.90;;;;;;5043447;28;20595;-76
2021/09/02 10:13:33;;;;;;;12.55;9.50;;;20.70;99.90;;;;;;5062990;28;20192;-76
2021/09/02 10:16:00;;;;;;;15.02;10.45;;;20.70;99.90;;;;;;5051488;28;20192;-77
2021/09/02 10:18:28;;;;;;;13.18;8.70;;;20.60;99.90;;;;;;5042494;28;20207;-77
2021/09/02 10:20:55;;;;;;;13.82;9.70;;;20.50;99.90;;;;;;5050573;28;20216;-78
2021/09/02 10:23:24;;;;;;;16.75;10.90;;;20.50;99.90;;;;;;5048674;28;20196;-77
2021/09/02 10:25:51;;;;;;;15.25;11.00;;;20.50;99.90;;;;;;5039803;28;20200;-77
2021/09/02 10:28:24;;;;;;;13.55;10.18;;;20.50;99.90;;;;;;5049605;28;20196;-77
2021/09/02 10:30:54;;;;;;;10.55;7.90;;;20.40;99.90;;;;;;5049967;28;20304;-77
2021/09/02 10:33:41;;;;;;;10.27;8.48;;;20.40;99.90;;;;;;5046068;28;20188;-76
2021/09/02 10:36:41;;;;;;;15.48;9.82;;;20.40;99.90;;;;;;5036913;28;20653;-77
2021/09/02 10:39:07;;;;;;;11.43;8.50;;;20.40;99.90;;;;;;5043783;28;20204;-76
2021/09/02 10:41:48;;;;;;;8.90;7.78;;;20.40;99.90;;;;;;5051535;28;20607;-78
2021/09/02 10:44:17;;;;;;;10.70;7.25;;;20.40;99.90;;;;;;5051266;28;20194;-77
2021/09/02 10:46:46;;;;;;;15.70;10.20;;;20.40;99.90;;;;;;5049363;28;20237;-77
2021/09/02 10:49:15;;;;;;;12.70;8.05;;;20.40;99.90;;;;;;5031626;28;20238;-77
2021/09/02 10:51:43;;;;;;;10.52;9.40;;;20.40;99.90;;;;;;5033631;28;20726;-76
2021/09/02 10:54:13;;;;;;;10.57;8.63;;;20.40;99.90;;;;;;5031706;28;20193;-77
2021/09/02 10:56:57;;;;;;;16.20;9.68;;;20.40;99.90;;;;;;5049531;28;20229;-76
2021/09/02 10:59:45;;;;;;;13.55;10.68;;;20.50;99.90;;;;;;5050106;28;20286;-76
2021/09/02 11:02:41;;;;;;;14.65;12.00;;;20.30;99.90;;;;;;5039564;28;20200;-76
2021/09/02 11:05:11;;;;;;;15.05;10.13;;;20.30;99.90;;;;;;5037434;28;20581;-77
2021/09/02 11:07:39;;;;;;;12.15;9.75;;;20.30;99.90;;;;;;5043262;28;20559;-77
2021/09/02 11:10:12;;;;;;;21.15;12.27;;;20.30;99.90;;;;;;5039633;28;20599;-77
2021/09/02 11:12:38;;;;;;;20.25;11.63;;;20.30;99.90;;;;;;5049764;28;20212;-77
2021/09/02 11:15:06;;;;;;;16.05;11.27;;;20.30;99.90;;;;;;5048365;28;20254;-77
2021/09/02 11:17:34;;;;;;;17.40;13.43;;;20.30;99.90;;;;;;5050933;28;20612;-77
2021/09/02 11:20:01;;;;;;;15.02;10.32;;;20.30;99.90;;;;;;5042706;28;20222;-76
2021/09/02 11:22:28;;;;;;;12.20;10.82;;;20.30;99.90;;;;;;5049596;28;20207;-77
2021/09/02 11:24:55;;;;;;;16.08;10.70;;;20.30;99.90;;;;;;5039808;28;20718;-77
2021/09/02 11:27:30;;;;;;;15.93;9.65;;;20.30;99.90;;;;;;5043860;28;20184;-76
2021/09/02 11:30:12;;;;;;;13.13;11.38;;;20.30;99.90;;;;;;5043457;28;20596;-77
2021/09/02 11:32:40;;;;;;;13.45;9.07;;;20.30;99.90;;;;;;5050810;28;20742;-75
2021/09/02 11:35:08;;;;;;;11.93;9.55;;;20.30;99.90;;;;;;5035829;28;20243;-77
2021/09/02 11:37:39;;;;;;;16.15;12.93;;;20.30;99.90;;;;;;5040878;28;20669;-76
2021/09/02 11:40:07;;;;;;;18.50;14.93;;;20.30;99.90;;;;;;5038799;28;20224;-76
2021/09/02 11:42:34;;;;;;;15.43;12.40;;;20.30;99.90;;;;;;5051072;28;20203;-79
2021/09/02 11:45:02;;;;;;;16.13;11.73;;;20.30;99.90;;;;;;5048234;28;20195;-76
2021/09/02 11:47:34;;;;;;;17.50;14.05;;;20.30;99.90;;;;;;5049844;28;20199;-76
2021/09/02 11:50:04;;;;;;;19.48;13.63;;;20.20;99.90;;;;;;5043896;28;20192;-76
2021/09/02 11:52:41;;;;;;;16.40;12.60;;;20.30;99.90;;;;;;5051351;28;20280;-77
2021/09/02 11:55:13;;;;;;;14.43;11.18;;;20.20;99.90;;;;;;5040461;28;20203;-77
2021/09/02 11:57:40;;;;;;;21.02;14.70;;;20.30;99.90;;;;;;5036674;28;20275;-76
2021/09/02 12:00:14;;;;;;;14.40;11.93;;;20.30;99.90;;;;;;5038706;28;20534;-76
2021/09/02 12:02:47;;;;;;;13.45;12.05;;;20.30;99.90;;;;;;5041909;28;20254;-77
2021/09/02 12:05:18;;;;;;;14.50;12.30;;;20.30;99.90;;;;;;5065410;28;20602;-77
2021/09/02 12:07:45;;;;;;;14.23;12.63;;;20.20;99.90;;;;;;5054081;28;20194;-77
2021/09/02 12:10:12;;;;;;;17.98;13.05;;;20.20;99.90;;;;;;5049517;28;20607;-77
2021/09/02 12:12:38;;;;;;;17.40;12.75;;;20.20;99.90;;;;;;5051306;28;20281;-77
2021/09/02 12:15:24;;;;;;;19.48;13.73;;;20.20;99.90;;;;;;5054367;28;20641;-77
2021/09/02 12:18:04;;;;;;;14.25;11.82;;;20.20;99.90;;;;;;5044141;28;20244;-77
2021/09/02 12:20:32;;;;;;;12.90;10.57;;;20.20;99.90;;;;;;5043319;28;20307;-77
2021/09/02 12:22:59;;;;;;;15.52;11.55;;;20.20;99.90;;;;;;5033993;28;20196;-77
2021/09/02 12:25:25;;;;;;;13.18;11.60;;;20.20;99.90;;;;;;5040850;28;20477;-76
2021/09/02 12:27:54;;;;;;;12.85;10.40;;;20.20;99.90;;;;;;5052070;28;20187;-77
2021/09/02 12:30:39;;;;;;;13.75;10.02;;;20.20;99.90;;;;;;5045909;28;20207;-77
2021/09/02 12:33:11;;;;;;;12.68;10.50;;;20.20;99.90;;;;;;5034464;28;20219;-77
2021/09/02 12:35:42;;;;;;;12.70;10.15;;;20.20;99.90;;;;;;5035527;28;20562;-77
2021/09/02 12:38:09;;;;;;;12.32;11.02;;;20.20;99.90;;;;;;5034028;28;20196;-77
2021/09/02 12:40:36;;;;;;;14.32;11.23;;;20.20;99.90;;;;;;5047647;28;20202;-83
2021/09/02 12:43:15;;;;;;;13.50;10.57;;;20.20;99.90;;;;;;5054064;28;20541;-76
2021/09/02 12:45:57;;;;;;;11.07;9.90;;;20.20;99.90;;;;;;5046566;28;20195;-77
2021/09/02 12:48:24;;;;;;;21.48;15.15;;;20.20;99.90;;;;;;5049646;28;20215;-77